CMB829 Details

Departure: Keflavík International Airport (BIKF)
Arrival: Ramstein Air Force Base (ETAR)
Route: OSKUM2C OSKUM ROSTI G3 MY G11 PEMOS SUM L7 LONAM UL7 SPY UN852 LNO PFF
Notes: USTRANSCOM CONTRACT FLIGHT


Current Weather Information
BIKF 232330Z 26007KT CAVOK 07/06 Q1020
ETAR 232256Z AUTO 00000KT 9999 FEW190 10/08 A3002 RMK AO2 SLP167 T01030084 402130031 $